Rechercher aéroport 
image banner adimage banner adimage banner ad
image banner ad

74PN - Upmc-Altoona

Situé à Altoona, United States

ICAO - 74PN, IATA -

Données fournies par Airmate  

Information générale

Coordonnées: N40°31'18" W78°23'54"
Élévation : 1259 feet MSL.
Variation magnétique : -10° East
Voir autres Aéroports à Pennsylvania

Données opérationnelles

Special qualification required
Heure actuelle UTC:
Heure actuelle locale:
Météo à : KAOO - Altoona-Blair County ( 26 km )
METAR: KAOO 131853Z AUTO 20007KT 10SM CLR 27/19 A2989 RMK AO2 SLP111 T02670189
TAF: KAOO 131734Z 1318/1418 23009KT P6SM SCT050 FM132000 27008KT P6SM -SHRA VCTS BKN040CB FM140100 28005KT P6SM SCT050 BKN150 FM140700 25004KT 1SM BR OVC008 FM141200 27008KT P6SM BKN080
Voir NOTAMs / SUP AIP / TFR affectant cet aéroport [VIEW]
Fréquences de communication: [VIEW]

Pistes:

Coordonnées de l'aéroport

Adresse: Altoona United States

Vue satellite de 74PN